Time;durP1;ratioP1;P1;durP2;ratioP2;P2;SDS_P1;SDS_P2;PMS_P1;PMS_P2;Temp;Humidity;BMP_temperature;BMP_pressure;BME280_temperature;BME280_humidity;BME280_pressure;Samples;Min_cycle;Max_cycle;Signal;HPM_P1;HPM_P2
2023/09/15 00:00:26;;;;;;;0.00;0.00;;;;;;;;;;5012883;28;20391;-83
2023/09/15 00:02:58;;;;;;;0.00;0.00;;;;;;;;;;5031172;28;20761;-83
2023/09/15 00:05:24;;;;;;;0.00;0.00;;;;;;;;;;5011156;28;20446;-83
2023/09/15 00:07:49;;;;;;;0.00;0.00;;;;;;;;;;5031684;28;20418;-84
2023/09/15 00:10:15;;;;;;;0.00;0.00;;;;;;;;;;5033207;28;20804;-83
2023/09/15 00:12:40;;;;;;;0.00;0.00;;;;;;;;;;5024725;28;21174;-82
2023/09/15 00:15:07;;;;;;;0.00;0.00;;;;;;;;;;5011736;28;21796;-83
2023/09/15 00:17:34;;;;;;;0.00;0.00;;;;;;;;;;5029034;28;20417;-83
2023/09/15 00:19:59;;;;;;;0.00;0.00;;;;;;;;;;5008502;28;20867;-83
2023/09/15 00:22:25;;;;;;;0.10;0.10;;;;;;;;;;5030640;28;20403;-83
2023/09/15 00:24:50;;;;;;;0.10;0.10;;;;;;;;;;5012416;28;20433;-82
2023/09/15 00:27:15;;;;;;;0.00;0.00;;;;;;;;;;5013707;28;20425;-82
2023/09/15 00:29:40;;;;;;;0.00;0.00;;;;;;;-124.34;100.00;87209.66;5026207;28;20468;-83
2023/09/15 00:32:07;;;;;;;0.00;0.00;;;;;;;;;;5018388;28;20711;-82
2023/09/15 00:34:32;;;;;;;0.00;0.00;;;;;;;;;;5036982;28;20408;-82
2023/09/15 00:36:57;;;;;;;0.00;0.00;;;;;;;;;;5033215;28;20407;-82
2023/09/15 00:39:24;;;;;;;0.00;0.00;;;;;;;;;;5016055;28;20419;-84
2023/09/15 00:41:49;;;;;;;0.00;0.00;;;;;;;;;;5010994;28;20776;-83
2023/09/15 00:44:14;;;;;;;0.00;0.00;;;;;;;;;;5036061;28;20411;-82
2023/09/15 00:46:40;;;;;;;0.00;0.00;;;;;;;;;;5032438;28;20403;-83
2023/09/15 00:49:06;;;;;;;0.00;0.00;;;;;;;;;;5029072;28;20482;-85
2023/09/15 00:51:32;;;;;;;0.00;0.00;;;;;;;;;;5028047;28;20421;-82
2023/09/15 00:53:58;;;;;;;0.00;0.00;;;;;;;;;;5031532;28;20409;-82
2023/09/15 00:56:24;;;;;;;0.00;0.00;;;;;;;;;;5031353;28;20419;-83
2023/09/15 00:58:49;;;;;;;0.00;0.00;;;;;;;;;;5030226;28;20463;-82
2023/09/15 01:01:14;;;;;;;0.10;0.10;;;;;;;;;;5028298;28;20426;-83
2023/09/15 01:03:41;;;;;;;0.00;0.00;;;;;;;;;;4995328;28;20423;-83
2023/09/15 01:06:08;;;;;;;0.00;0.00;;;;;;;;;;5008611;28;20491;-82
2023/09/15 01:08:34;;;;;;;0.00;0.00;;;;;;;;;;5030157;28;20393;-85
2023/09/15 01:11:03;;;;;;;0.00;0.00;;;;;;;;;;5027152;28;20908;-82
2023/09/15 01:13:28;;;;;;;0.00;0.00;;;;;;;;;;5025345;28;20453;-82
2023/09/15 01:16:00;;;;;;;0.00;0.00;;;;;;;;;;5004306;28;20822;-83
2023/09/15 01:18:29;;;;;;;0.10;0.10;;;;;;;;;;5028529;28;20409;-82
2023/09/15 01:21:05;;;;;;;0.00;0.00;;;;;;;;;;5027129;28;20403;-83
2023/09/15 01:23:33;;;;;;;0.00;0.00;;;;;;;;;;5030112;28;20868;-82
2023/09/15 01:26:33;;;;;;;0.10;0.10;;;;;;;;;;5016907;28;20992;-83
2023/09/15 01:28:58;;;;;;;0.10;0.10;;;;;;;;;;4963738;28;20424;-83
2023/09/15 01:31:24;;;;;;;0.10;0.10;;;;;;;;;;4996305;28;20399;-83
2023/09/15 01:33:49;;;;;;;0.10;0.10;;;;;;;;;;5010547;28;20493;-83
2023/09/15 01:36:14;;;;;;;0.10;0.10;;;;;;;;;;5009825;28;20400;-85
2023/09/15 01:38:40;;;;;;;0.00;0.00;;;;;;;;;;5027884;28;20411;-83
2023/09/15 01:41:05;;;;;;;0.10;0.10;;;;;;;;;;5028553;28;20920;-83
2023/09/15 01:43:30;;;;;;;0.10;0.10;;;;;;;;;;5006372;28;20418;-84
2023/09/15 01:45:55;;;;;;;0.00;0.00;;;;;;;;;;5028818;28;20940;-83
2023/09/15 01:48:21;;;;;;;0.10;0.10;;;;;;;;;;5009213;28;20411;-84
2023/09/15 01:50:47;;;;;;;0.10;0.10;;;;;;;;;;5026291;28;20407;-83
2023/09/15 01:53:12;;;;;;;0.10;0.10;;;;;;;;;;5031197;28;20406;-84
2023/09/15 01:55:40;;;;;;;0.07;0.07;;;;;;;;;;5025184;28;20417;-84
2023/09/15 01:58:05;;;;;;;0.10;0.10;;;;;;;;;;5030471;28;20415;-84
2023/09/15 02:00:34;;;;;;;0.00;0.00;;;;;;;;;;5029517;28;20481;-83
2023/09/15 02:02:59;;;;;;;0.00;0.00;;;;;;;;;;5028993;28;20833;-82
2023/09/15 02:05:25;;;;;;;0.00;0.00;;;;;;;;;;5029114;28;20478;-82
2023/09/15 02:07:50;;;;;;;0.07;0.07;;;;;;;;;;5011206;28;20502;-82
2023/09/15 02:10:15;;;;;;;0.00;0.00;;;;;;;;;;5019145;28;20414;-84
2023/09/15 02:12:40;;;;;;;0.10;0.10;;;;;;;;;;5019324;28;20800;-82
2023/09/15 02:15:06;;;;;;;0.03;0.03;;;;;;;;;;5028471;28;20423;-84
2023/09/15 02:17:31;;;;;;;0.00;0.00;;;;;;;;;;5035188;28;20442;-84
2023/09/15 02:19:57;;;;;;;0.00;0.00;;;;;;;;;;5031317;28;20411;-84
2023/09/15 02:22:22;;;;;;;0.05;0.05;;;;;;;;;;5012806;28;20403;-82
2023/09/15 02:24:47;;;;;;;0.03;0.03;;;;;;;;;;5029065;28;21984;-83
2023/09/15 02:27:12;;;;;;;0.10;0.10;;;;;;;;;;5029807;28;20411;-83
2023/09/15 02:29:38;;;;;;;0.10;0.10;;;;;;;;;;5012334;28;20471;-83
2023/09/15 02:32:04;;;;;;;0.00;0.00;;;;;;;;;;5029511;28;20411;-83
2023/09/15 02:34:30;;;;;;;0.00;0.00;;;;;;;-145.28;100.00;87220.34;5011157;28;20497;-83
2023/09/15 02:36:55;;;;;;;0.10;0.10;;;;;;;;;;5012686;28;20413;-84
2023/09/15 02:39:21;;;;;;;0.10;0.10;;;;;;;;;;5024899;28;20403;-83
2023/09/15 02:41:46;;;;;;;0.00;0.00;;;;;;;;;;5023401;28;20453;-83
2023/09/15 02:44:11;;;;;;;0.10;0.10;;;;;;;;;;5032816;28;20422;-83
2023/09/15 02:46:37;;;;;;;0.10;0.10;;;;;;;;;;5032847;28;20418;-83
2023/09/15 02:49:03;;;;;;;0.10;0.10;;;;;;;;;;5032942;28;20750;-83
2023/09/15 02:51:28;;;;;;;0.10;0.10;;;;;;;;;;5036609;28;20415;-83
2023/09/15 02:53:53;;;;;;;0.00;0.00;;;;;;;;;;5022886;28;20402;-83
2023/09/15 02:56:22;;;;;;;0.00;0.00;;;;;;;;;;5015803;28;20506;-81
2023/09/15 02:58:47;;;;;;;0.00;0.00;;;;;;;;;;5032948;28;20412;-81
2023/09/15 03:01:13;;;;;;;0.10;0.10;;;;;;;;;;5020420;28;20815;-82
2023/09/15 03:03:38;;;;;;;0.10;0.10;;;;;;;;;;5032526;28;20473;-84
2023/09/15 03:06:04;;;;;;;0.10;0.10;;;;;;;;;;5031643;28;20462;-82
2023/09/15 03:08:29;;;;;;;0.00;0.00;;;;;;;;;;5015612;28;20398;-82
2023/09/15 03:10:55;;;;;;;0.07;0.07;;;;;;;;;;5012388;28;20908;-84
2023/09/15 03:13:20;;;;;;;0.10;0.10;;;;;;;;;;5033743;28;20753;-83
2023/09/15 03:15:45;;;;;;;0.03;0.03;;;;;;;;;;5031068;28;20419;-84
2023/09/15 03:18:10;;;;;;;0.00;0.00;;;;;;;;;;5015550;28;20427;-84
2023/09/15 03:20:35;;;;;;;0.03;0.03;;;;;;;;;;5036822;28;20399;-83
2023/09/15 03:23:01;;;;;;;0.00;0.00;;;;;;;;;;5022737;28;20923;-83
2023/09/15 03:25:26;;;;;;;0.00;0.00;;;;;;;;;;5018367;28;20438;-83
2023/09/15 03:27:53;;;;;;;0.10;0.10;;;;;;;;;;5033815;28;20415;-83
2023/09/15 03:30:18;;;;;;;0.10;0.10;;;;;;;;;;5035136;28;20489;-83
2023/09/15 03:32:43;;;;;;;0.10;0.10;;;;;;;;;;5033321;28;20457;-83
2023/09/15 03:35:08;;;;;;;0.10;0.10;;;;;;;;;;5009253;28;20426;-83
2023/09/15 03:37:33;;;;;;;0.10;0.10;;;;;;;;;;5035685;28;20457;-81
2023/09/15 03:39:59;;;;;;;0.10;0.10;;;;;;;;;;5016624;28;20411;-83
2023/09/15 03:42:24;;;;;;;0.10;0.10;;;;;;;;;;5034017;28;20462;-82
2023/09/15 03:44:49;;;;;;;0.10;0.10;;;;;;;;;;5033893;28;20399;-83
2023/09/15 03:47:14;;;;;;;0.10;0.10;;;;;;;;;;5022033;28;20416;-82
2023/09/15 03:49:43;;;;;;;0.00;0.00;;;;;;;;;;5024359;28;20834;-81
2023/09/15 03:52:08;;;;;;;0.10;0.10;;;;;;;;;;5015975;28;20415;-82
2023/09/15 03:54:33;;;;;;;0.10;0.10;;;;;;;;;;5032000;28;20442;-82
2023/09/15 03:56:58;;;;;;;0.00;0.00;;;;;;;;;;5034705;28;20471;-83
2023/09/15 03:59:23;;;;;;;0.00;0.00;;;;;;;;;;5032653;28;20435;-82
2023/09/15 04:01:49;;;;;;;0.10;0.10;;;;;;;;;;5035481;28;20412;-83
2023/09/15 04:04:14;;;;;;;0.10;0.10;;;;;;;;;;5036017;28;20440;-81
2023/09/15 04:06:39;;;;;;;0.10;0.10;;;;;;;;;;5034749;28;20415;-82
2023/09/15 04:09:09;;;;;;;0.10;0.10;;;;;;;;;;5027376;28;20430;-82
2023/09/15 04:11:35;;;;;;;0.10;0.10;;;;;;;;;;5032724;28;20438;-82
2023/09/15 04:14:00;;;;;;;0.10;0.10;;;;;;;;;;5027088;28;20411;-81
2023/09/15 04:16:25;;;;;;;0.10;0.10;;;;;;;;;;5022012;28;20405;-83
2023/09/15 04:18:50;;;;;;;0.10;0.10;;;;;;;;;;5036551;28;20405;-82
2023/09/15 04:21:16;;;;;;;0.10;0.10;;;;;;;;;;5032511;28;20531;-82
2023/09/15 04:23:41;;;;;;;0.10;0.10;;;;;;;;;;5014629;28;20470;-82
2023/09/15 04:26:06;;;;;;;0.10;0.10;;;;;;;;;;5036321;28;20505;-82
2023/09/15 04:28:31;;;;;;;0.10;0.10;;;;;;;;;;5037030;28;20463;-82
2023/09/15 04:30:57;;;;;;;0.10;0.10;;;;;;;;;;5033689;28;20407;-83
2023/09/15 04:33:23;;;;;;;0.10;0.10;;;;;;;;;;5027797;28;20478;-82
2023/09/15 04:35:48;;;;;;;0.10;0.10;;;;;;;;;;5020275;28;20932;-83
2023/09/15 04:38:14;;;;;;;0.10;0.10;;;;;;;;;;5040067;28;20421;-84
2023/09/15 04:40:39;;;;;;;0.03;0.03;;;;;;;;;;5024303;28;20848;-82
2023/09/15 04:43:04;;;;;;;0.10;0.10;;;;;;;;;;5037115;28;20955;-82
2023/09/15 04:45:29;;;;;;;0.10;0.10;;;;;;;;;;5036557;28;20406;-83
2023/09/15 04:47:54;;;;;;;0.10;0.10;;;;;;;;;;5039649;28;20414;-82
2023/09/15 04:50:20;;;;;;;0.10;0.10;;;;;;;;;;5032778;28;20414;-83
2023/09/15 04:52:45;;;;;;;0.10;0.10;;;;;;;;;;5040110;28;20408;-82
2023/09/15 04:55:10;;;;;;;0.00;0.00;;;;;;;;;;5041204;28;20454;-82
2023/09/15 04:57:36;;;;;;;0.03;0.03;;;;;;;;;;5027541;28;20446;-82
2023/09/15 05:00:01;;;;;;;0.03;0.03;;;;;;;;;;5034219;28;20604;-83
2023/09/15 05:02:30;;;;;;;0.10;0.10;;;;;;;22.71;100.00;65946.44;5035635;28;20422;-84
2023/09/15 05:04:55;;;;;;;0.05;0.05;;;;;;;12.44;nan;100714.56;5022336;28;20415;-82
2023/09/15 05:07:20;;;;;;;0.10;0.10;;;;;;;;;;5033052;28;20514;-83
2023/09/15 05:09:46;;;;;;;0.10;0.10;;;;;;;;;;5035343;28;20038;-82
2023/09/15 05:12:11;;;;;;;0.10;0.10;;;;;;;;;;5033773;28;20352;-83
2023/09/15 05:14:36;;;;;;;0.10;0.10;;;;;;;;;;5027115;28;20331;-82
2023/09/15 05:17:03;;;;;;;0.20;0.20;;;;;;;;;;5017553;28;20065;-82
2023/09/15 05:19:28;;;;;;;0.20;0.20;;;;;;;;;;5012996;28;20067;-82
2023/09/15 05:21:53;;;;;;;0.20;0.20;;;;;;;;;;5039179;28;20040;-82
2023/09/15 05:24:19;;;;;;;0.20;0.20;;;;;;;;;;5039313;28;20483;-83
2023/09/15 05:26:44;;;;;;;0.20;0.20;;;;;;;;;;5038254;28;20041;-82
2023/09/15 05:29:09;;;;;;;0.20;0.20;;;;;;;;;;5018846;28;20403;-83
2023/09/15 05:31:34;;;;;;;0.20;0.20;;;;;;;;;;5012713;28;20049;-83
2023/09/15 05:34:00;;;;;;;0.10;0.10;;;;;;;;;;5033064;28;20462;-82
2023/09/15 05:36:26;;;;;;;0.20;0.20;;;;;;;;;;5032418;28;20414;-82
2023/09/15 05:38:52;;;;;;;0.10;0.10;;;;;;;;;;5016015;28;20458;-82
2023/09/15 05:41:17;;;;;;;0.10;0.10;;;;;;;;;;5033610;28;20551;-83
2023/09/15 05:43:42;;;;;;;;;;;;;;;;;;5035445;28;20049;-82
2023/09/15 05:46:07;;;;;;;0.10;0.10;;;;;;;;;;5034109;28;20382;-83
2023/09/15 05:48:33;;;;;;;0.10;0.10;;;;;;;;;;5015868;28;20430;-82
2023/09/15 05:50:58;;;;;;;0.10;0.10;;;;;;;;;;5035895;28;20033;-82
2023/09/15 05:53:23;;;;;;;0.17;0.17;;;;;;;;;;5035139;28;20040;-82
2023/09/15 05:55:49;;;;;;;0.10;0.10;;;;;;;12.38;nan;100707.22;5035350;28;20057;-81
2023/09/15 05:58:14;;;;;;;0.20;0.20;;;;;;;;;;5024368;28;20080;-83
2023/09/15 06:00:41;;;;;;;0.13;0.13;;;;;;;13.00;nan;100675.06;5030360;28;20471;-81
2023/09/15 06:03:07;;;;;;;0.10;0.10;;;;;;;;;;5016870;28;20030;-82
2023/09/15 06:05:33;;;;;;;0.10;0.10;;;;;;;;;;5012649;28;20044;-83
2023/09/15 06:07:58;;;;;;;0.08;0.08;;;;;;;;;;5016584;28;20501;-84
2023/09/15 06:10:24;;;;;;;0.10;0.10;;;;;;;14.46;nan;100597.88;5032099;28;20504;-82
2023/09/15 06:12:49;;;;;;;;;;;;;;;;;;5029848;28;20295;-83
2023/09/15 06:15:14;;;;;;;;;;;;;;;15.22;nan;100608.66;5026180;28;19925;-84
2023/09/15 06:17:39;;;;;;;;;;;;;;;;;;5014904;28;19932;-82
2023/09/15 06:20:04;;;;;;;;;;;;;;;15.49;nan;100602.75;5019382;28;19925;-82
2023/09/15 06:22:30;;;;;;;;;;;;;;;15.61;nan;100607.63;5016953;28;19932;-83
2023/09/15 06:24:55;;;;;;;;;;;;;;;15.71;nan;100610.88;5015713;28;20315;-84
2023/09/15 06:27:20;;;;;;;;;;;;;;;16.01;nan;100611.69;5034350;28;19917;-83
2023/09/15 06:29:45;;;;;;;;;;;;;;;16.23;nan;100617.94;5017921;28;19918;-83
2023/09/15 06:32:12;;;;;;;;;;;;;;;16.38;nan;100611.75;5040637;28;19913;-83
2023/09/15 06:34:37;;;;;;;;;;;;;;;16.49;nan;100619.25;5037244;28;19921;-83
2023/09/15 06:37:02;;;;;;;;;;;;;;;;;;5020286;28;19936;-83
2023/09/15 06:39:28;;;;;;;;;;;;;;;16.88;nan;100616.22;5025396;28;19974;-86
2023/09/15 06:41:53;;;;;;;;;;;;;;;17.12;nan;100630.19;5041582;28;19913;-85
2023/09/15 06:44:18;;;;;;;;;;;;;;;;;;5037322;28;20010;-86
2023/09/15 06:46:44;;;;;;;;;;;;;;;17.19;nan;100628.41;5020518;28;19913;-83
2023/09/15 06:49:09;;;;;;;;;;;;;;;17.00;nan;100629.88;5039923;28;20344;-86
2023/09/15 06:51:34;;;;;;;;;;;;;;;17.07;nan;100613.91;5046736;28;19917;-83
2023/09/15 06:54:00;;;;;;;;;;;;;;;17.62;nan;100633.66;5018865;28;19960;-85
2023/09/15 06:56:26;;;;;;;;;;;;;;;18.12;nan;100653.13;5036092;28;20333;-83
2023/09/15 06:58:51;;;;;;;;;;;;;;;18.66;nan;100640.75;5036324;28;19959;-83
2023/09/15 07:01:16;;;;;;;;;;;;;;;19.17;nan;100647.50;5017552;28;20156;-83
2023/09/15 07:03:42;;;;;;;;;;;;;;;19.63;nan;100660.06;5036342;28;20009;-83
2023/09/15 07:06:07;;;;;;;;;;;;;;;20.08;nan;100650.28;5036081;28;20363;-87
2023/09/15 07:08:32;;;;;;;;;;;;;;;20.35;nan;100666.28;5017812;28;19917;-83
2023/09/15 07:10:57;;;;;;;;;;;;;;;20.44;nan;100667.72;5009813;28;19920;-83
2023/09/15 07:13:23;;;;;;;;;;;;;;;20.46;nan;100668.31;5014200;28;19960;-83
2023/09/15 07:15:48;;;;;;;;;;;;;;;20.65;nan;100676.53;5012557;28;20176;-84
2023/09/15 07:18:14;;;;;;;;;;;;;;;20.74;nan;100670.69;5033994;28;19919;-84
2023/09/15 07:20:39;;;;;;;;;;;;;;;20.75;nan;100682.25;5001543;28;19937;-83
2023/09/15 07:23:04;;;;;;;;;;;;;;;20.53;nan;100657.56;5015023;28;20397;-84
2023/09/15 07:25:29;;;;;;;;;;;;;;;20.69;nan;100673.22;5016541;28;19917;-83
2023/09/15 07:27:54;;;;;;;;;;;;;;;20.54;nan;100661.88;5013823;28;19917;-84
2023/09/15 07:30:20;;;;;;;;;;;;;;;20.72;nan;100672.78;5032518;28;19924;-83
2023/09/15 07:32:45;;;;;;;;;;;;;;;21.10;nan;100657.66;5016870;28;19927;-81
2023/09/15 07:35:12;;;;;;;;;;;;;;;21.20;nan;100664.19;5016293;28;19975;-83
2023/09/15 07:37:37;;;;;;;;;;;;;;;20.83;nan;100663.19;5034520;28;19921;-82
2023/09/15 07:40:03;;;;;;;;;;;;;;;21.02;nan;100661.41;5016571;28;19913;-84
2023/09/15 07:42:28;;;;;;;;;;;;;;;20.88;nan;100646.41;5015923;28;19920;-83
2023/09/15 07:44:53;;;;;;;;;;;;;;;21.11;nan;100653.91;5026440;28;19925;-82
2023/09/15 07:47:19;;;;;;;;;;;;;;;21.63;nan;100657.25;5016871;28;20441;-82
2023/09/15 07:49:45;;;;;;;;;;;;;;;21.93;nan;100661.91;5035414;28;19913;-83
2023/09/15 07:52:10;;;;;;;;;;;;;;;22.12;nan;100660.03;5017418;28;20267;-82
2023/09/15 07:54:35;;;;;;;;;;;;;;;22.50;nan;100680.53;5017461;28;19917;-84
2023/09/15 07:57:00;;;;;;;;;;;;;;;22.79;nan;100671.66;5035642;28;19924;-82
2023/09/15 07:59:25;;;;;;;;;;;;;;;23.20;nan;100672.72;5034586;28;20012;-83
2023/09/15 08:01:51;;;;;;;;;;;;;;;23.21;nan;100663.56;5009617;28;19960;-82
2023/09/15 08:04:16;;;;;;;;;;;;;;;22.68;nan;100667.84;5016219;28;19967;-83
2023/09/15 08:06:42;;;;;;;;;;;;;;;23.06;nan;100671.28;5010926;28;19949;-84
2023/09/15 08:09:08;;;;;;;;;;;;;;;23.56;nan;100662.78;5034132;28;19916;-83
2023/09/15 08:11:37;;;;;;;;;;;;;;;23.76;nan;100675.97;5035643;28;19960;-83
2023/09/15 08:14:03;;;;;;;;;;;;;;;23.52;nan;100667.00;5034263;28;19920;-82
2023/09/15 08:16:28;;;;;;;;;;;;;;;23.73;nan;100665.59;5034185;28;20294;-84
2023/09/15 08:18:53;;;;;;;;;;;;;;;23.81;nan;100673.41;5017543;28;19913;-82
2023/09/15 08:21:19;;;;;;;;;;;;;;;23.87;nan;100672.44;5016821;28;19921;-83
2023/09/15 08:23:44;;;;;;;;;;;;;;;24.10;nan;100638.38;5033904;28;19913;-84
2023/09/15 08:26:09;;;;;;;;;;;;;;;24.33;nan;100648.25;5033565;28;19941;-83
2023/09/15 08:28:34;;;;;;;;;;;;;;;24.49;nan;100647.53;5034116;28;19979;-84
2023/09/15 08:30:59;;;;;;;;;;;;;;;25.11;nan;100665.69;5033804;28;20361;-83
2023/09/15 08:33:25;;;;;;;;;;;;;;;25.64;nan;100664.38;5007655;28;20329;-83
2023/09/15 08:35:51;;;;;;;;;;;;;;;25.45;nan;100665.72;5032136;28;19921;-85
2023/09/15 08:38:16;;;;;;;;;;;;;;;25.56;nan;100662.09;5031492;28;19943;-83
2023/09/15 08:40:50;;;;;;;;;;;;;;;25.80;nan;100656.47;5032867;28;19920;-84
2023/09/15 08:43:15;;;;;;;;;;;;;;;25.99;nan;100657.03;5015421;28;20294;-82
2023/09/15 08:45:42;;;;;;;;;;;;;;;26.41;nan;100662.72;5016316;28;19913;-81
2023/09/15 08:48:09;;;;;;;;;;;;;;;26.48;nan;100657.91;5035018;28;20386;-82
2023/09/15 08:50:37;;;;;;;;;;;;;;;26.82;nan;100657.75;5016925;28;19924;-82
2023/09/15 08:53:03;;;;;;;;;;;;;;;27.52;nan;100665.94;5032890;28;19919;-82
2023/09/15 08:55:28;;;;;;;;;;;;;;;28.23;nan;100659.28;5033200;28;20394;-82
2023/09/15 08:57:55;;;;;;;;;;;;;;;28.61;nan;100676.28;5034005;28;20267;-82
2023/09/15 09:00:21;;;;;;;;;;;;;;;28.50;nan;100665.38;5035335;28;19923;-82
2023/09/15 09:02:46;;;;;;;;;;;;;;;27.89;nan;100665.13;5042621;28;19959;-83
2023/09/15 09:05:11;;;;;;;;;;;;;;;28.17;nan;100662.00;5045466;28;19948;-82
2023/09/15 09:07:37;;;;;;;;;;;;;;;28.19;nan;100669.06;5047624;28;19913;-82
2023/09/15 09:10:03;;;;;;;;;;;;;;;28.56;nan;100668.94;5034438;28;19921;-82
2023/09/15 09:12:28;;;;;;;;;;;;;;;29.47;nan;100664.66;5041933;28;19913;-82
2023/09/15 09:14:56;;;;;;;;;;;;;;;29.74;nan;100655.38;5041116;28;19971;-82
2023/09/15 09:17:22;;;;;;;;;;;;;;;29.77;nan;100655.63;5024818;28;20051;-83
2023/09/15 09:19:49;;;;;;;;;;;;;;;29.26;nan;100657.59;5038282;28;20068;-83
2023/09/15 09:22:17;;;;;;;;;;;;;;;29.49;nan;100648.84;5022551;28;19920;-84
2023/09/15 09:24:43;;;;;;;;;;;;;;;29.92;nan;100652.03;5039171;28;19968;-81
2023/09/15 09:27:09;;;;;;;;;;;;;;;29.90;nan;100664.31;5040490;28;19955;-82
2023/09/15 09:29:35;;;;;;;;;;;;;;;30.17;nan;100653.84;5042597;28;19921;-82
2023/09/15 09:32:00;;;;;;;;;;;;;;;30.47;nan;100646.63;5039750;28;20428;-82
2023/09/15 09:34:25;;;;;;;;;;;;;;;30.51;nan;100652.31;5037982;28;19921;-82
2023/09/15 09:36:51;;;;;;;;;;;;;;;31.02;nan;100647.34;5038622;28;19952;-82
2023/09/15 09:39:16;;;;;;;;;;;;;;;31.52;nan;100648.00;5037868;28;19956;-83
2023/09/15 09:41:43;;;;;;;;;;;;;;;31.93;nan;100655.75;5037452;28;19996;-82
2023/09/15 09:44:08;;;;;;;;;;;;;;;32.03;nan;100648.56;5035582;28;19913;-82
2023/09/15 09:46:36;;;;;;;;;;;;;;;32.65;nan;100637.63;5034882;28;20299;-82
2023/09/15 09:49:01;;;;;;;;;;;;;;;32.86;nan;100649.06;5020410;28;19921;-83
2023/09/15 09:51:28;;;;;;;;;;;;;;;32.81;nan;100652.69;5035123;28;19968;-82
2023/09/15 09:53:55;;;;;;;;;;;;;;;32.49;nan;100639.72;5035720;28;19940;-82
2023/09/15 09:56:21;;;;;;;;;;;;;;;32.06;nan;100637.03;5036672;28;19925;-82
2023/09/15 09:58:46;;;;;;;;;;;;;;;32.13;nan;100634.75;5040951;28;19955;-82
2023/09/15 10:01:11;;;;;;;;;;;;;;;33.17;nan;100633.75;5024223;28;19917;-82
2023/09/15 10:03:37;;;;;;;;;;;;;;;33.66;nan;100627.97;5038174;28;19917;-82
2023/09/15 10:06:05;;;;;;;;;;;;;;;33.71;nan;100628.69;5033980;28;20406;-82
2023/09/15 10:08:31;;;;;;;;;;;;;;;33.36;nan;100630.97;5039293;28;20410;-82
2023/09/15 10:10:56;;;;;;;;;;;;;;;32.83;nan;100622.28;5035135;28;19944;-83
2023/09/15 10:13:22;;;;;;;;;;;;;;;32.83;nan;100623.09;5034477;28;20297;-82
2023/09/15 10:15:48;;;;;;;;;;;;;;;33.11;nan;100624.03;5034169;28;19986;-82
2023/09/15 10:18:15;;;;;;;;;;;;;;;33.25;nan;100612.25;5035897;28;19916;-82
2023/09/15 10:20:41;;;;;;;;;;;;;;;33.52;nan;100612.31;5016876;28;20393;-83
2023/09/15 10:23:07;;;;;;;;;;;;;;;33.87;nan;100601.75;5031893;28;19913;-82
2023/09/15 10:25:48;;;;;;;;;;;;;;;33.48;nan;100596.75;5034388;28;19921;-82
2023/09/15 10:28:14;;;;;;;;;;;;;;;33.76;nan;100589.38;5035470;28;20016;-83
2023/09/15 10:30:40;;;;;;;;;;;;;;;33.40;nan;100590.88;5024769;28;19952;-82
2023/09/15 10:33:07;;;;;;;;;;;;;;;33.75;nan;100582.25;5035343;28;19975;-82
2023/09/15 10:35:33;;;;;;;;;;;;;;;33.90;nan;100586.63;5016230;28;19928;-83
2023/09/15 10:38:02;;;;;;;;;;;;;;;34.48;nan;100578.44;5013529;28;19913;-83
2023/09/15 10:40:28;;;;;;;;;;;;;;;34.78;nan;100558.81;5034283;28;19913;-83
2023/09/15 10:42:55;;;;;;;;;;;;;;;34.91;nan;100579.09;5034885;28;19953;-83
2023/09/15 10:45:20;;;;;;;;;;;;;;;35.39;nan;100572.88;5039494;28;19921;-82
2023/09/15 10:47:56;;;;;;;;;;;;;;;35.69;nan;100580.28;5036477;28;19924;-82
2023/09/15 10:50:31;;;;;;;;;;;;;;;35.15;nan;100567.75;5035884;28;19975;-83
2023/09/15 10:53:05;;;;;;;;;;;;;;;34.99;nan;100565.41;5041403;28;19916;-83
2023/09/15 10:55:31;;;;;;;;;;;;;;;34.97;nan;100559.41;5035326;28;19984;-83
2023/09/15 10:57:57;;;;;;;;;;;;;;;34.82;nan;100560.59;5038768;28;19917;-83
2023/09/15 11:00:24;;;;;;;;;;;;;;;34.91;nan;100555.16;5036671;28;19923;-83
2023/09/15 11:02:49;;;;;;;;;;;;;;;34.71;nan;100553.75;5040371;28;19921;-83
2023/09/15 11:05:14;;;;;;;;;;;;;;;35.19;nan;100550.31;5044627;28;19924;-83
2023/09/15 11:07:40;;;;;;;;;;;;;;;35.10;nan;100555.78;5038551;28;19917;-83
2023/09/15 11:10:06;;;;;;;;;;;;;;;35.78;nan;100551.97;5025263;28;19913;-83
2023/09/15 11:12:31;;;;;;;;;;;;;;;36.04;nan;100550.06;5042985;28;19916;-83
2023/09/15 11:15:00;;;;;;;;;;;;;;;36.33;nan;100546.69;5030768;28;19925;-83
2023/09/15 11:17:27;;;;;;;;;;;;;;;36.60;nan;100544.75;5029039;28;19960;-83
2023/09/15 11:19:53;;;;;;;;;;;;;;;36.32;nan;100539.56;5026002;28;19921;-84
2023/09/15 11:22:18;;;;;;;;;;;;;;;36.56;nan;100536.28;5042675;28;19980;-86
2023/09/15 11:24:43;;;;;;;;;;;;;;;36.94;nan;100524.53;5044628;28;19917;-88
2023/09/15 11:27:08;;;;;;;;;;;;;;;36.87;nan;100520.69;5029338;28;19921;-88
2023/09/15 11:29:34;;;;;;;;;;;;;;;36.97;nan;100523.06;5035269;28;20007;-88
2023/09/15 11:32:00;;;;;;;;;;;;;;;37.01;nan;100521.28;5018379;28;19921;-88
2023/09/15 11:34:26;;;;;;;;;;;;;;;37.29;nan;100515.34;5034279;28;19913;-88
2023/09/15 11:36:59;;;;;;;;;;;;;;;36.81;nan;100511.78;5017541;28;19985;-89
2023/09/15 11:39:24;;;;;;;;;;;;;;;36.32;nan;100511.22;5015843;28;19913;-87
2023/09/15 11:41:55;;;;;;;;;;;;;;;35.98;nan;100510.06;5035224;28;19917;-87
2023/09/15 11:44:21;;;;;;;;;;;;;;;34.57;nan;100515.34;5014695;28;20379;-88
2023/09/15 11:46:47;;;;;;;;;;;;;;;34.10;nan;100505.81;5017634;28;19913;-88
2023/09/15 11:49:12;;;;;;;;;;;;;;;33.50;nan;100499.38;5033942;28;19913;-88
2023/09/15 11:51:38;;;;;;;;;;;;;;;33.40;nan;100494.13;5016376;28;19920;-88
2023/09/15 11:54:04;;;;;;;;;;;;;;;33.24;nan;100490.88;5033559;28;20012;-88
2023/09/15 11:56:31;;;;;;;;;;;;;;;32.61;nan;100491.47;5016304;28;19913;-88
2023/09/15 11:58:59;;;;;;;;;;;;;;;31.97;nan;100491.13;5009378;28;19925;-88
2023/09/15 12:01:25;;;;;;;;;;;;;;;31.76;nan;100491.38;5015340;28;20329;-88
2023/09/15 12:03:51;;;;;;;;;;;;;;;31.60;nan;100479.00;5033959;28;19913;-88
2023/09/15 12:06:17;;;;;;;;;;;;;;;31.40;nan;100482.84;5042146;28;20004;-87
2023/09/15 12:08:44;;;;;;;;;;;;;;;31.03;nan;100474.19;5035522;28;19972;-87
2023/09/15 12:11:10;;;;;;;;;;;;;;;30.54;nan;100477.13;5019693;28;19992;-86
2023/09/15 12:13:36;;;;;;;;;;;;;;;30.20;nan;100467.81;5014477;28;19924;-86
2023/09/15 12:16:01;;;;;;;;;;;;;;;29.99;nan;100460.88;5031989;28;19917;-87
2023/09/15 12:18:26;;;;;;;;;;;;;;;29.85;nan;100460.69;5032797;28;20293;-87
2023/09/15 12:20:53;;;;;;;;;;;;;;;29.37;nan;100454.94;5033231;28;19913;-87
2023/09/15 12:23:21;;;;;;;;;;;;;;;29.24;nan;100445.44;5015137;28;19913;-87
2023/09/15 12:25:47;;;;;;;;;;;;;;;29.18;nan;100431.03;5011749;28;19922;-87
2023/09/15 12:28:12;;;;;;;;;;;;;;;29.23;nan;100432.91;5033121;28;19946;-87
2023/09/15 12:30:43;;;;;;;;;;;;;;;29.05;nan;100430.78;5016148;28;19941;-86
2023/09/15 12:33:08;;;;;;;;;;;;;;;28.84;nan;100425.41;5011339;28;19913;-86
2023/09/15 12:35:38;;;;;;;;;;;;;;;28.38;nan;100428.13;5018948;28;19971;-87
2023/09/15 12:38:03;;;;;;;;;;;;;;;27.98;nan;100410.72;5014898;28;20366;-87
2023/09/15 12:40:30;;;;;;;;;;;;;;;27.89;nan;100409.66;5032551;28;19917;-87
2023/09/15 12:42:56;;;;;;;;;;;;;;;27.59;nan;100399.50;5015230;28;20298;-86
2023/09/15 12:45:21;;;;;;;;;;;;;;;27.27;nan;100397.81;5016573;28;19917;-87
2023/09/15 12:47:46;;;;;;;;;;;;;;;27.20;nan;100392.59;5036578;28;19980;-86
2023/09/15 12:50:11;;;;;;;;;;;;;;;27.18;nan;100383.88;5013721;28;20371;-85
2023/09/15 12:52:37;;;;;;;;;;;;;;;27.28;nan;100385.84;5034091;28;20036;-85
2023/09/15 12:55:03;;;;;;;;;;;;;;;27.36;nan;100381.78;5025574;28;19913;-86
2023/09/15 12:57:28;;;;;;;;;;;;;;;27.25;nan;100375.53;5028987;28;19918;-86
2023/09/15 12:59:54;;;;;;;;;;;;;;;27.26;nan;100380.66;5032913;28;19971;-85
2023/09/15 13:02:19;;;;;;;;;;;;;;;27.16;nan;100372.47;5032616;28;19939;-86
2023/09/15 13:04:45;;;;;;;;;;;;;;;27.05;nan;100368.91;5031327;28;19917;-86
2023/09/15 13:07:11;;;;;;;;;;;;;;;26.98;nan;100365.63;5032867;28;19917;-87
2023/09/15 13:09:36;;;;;;;;;;;;;;;26.93;nan;100360.16;5014883;28;19913;-86
2023/09/15 13:12:01;;;;;;;;;;;;;;;27.08;nan;100373.81;5015887;28;20299;-86
2023/09/15 13:14:28;;;;;;;;;;;;;;;27.15;nan;100372.72;5033306;28;19924;-86
2023/09/15 13:16:54;;;;;;;;;;;;;;;26.90;nan;100360.69;5034221;28;19917;-85
2023/09/15 13:19:19;;;;;;;;;;;;;;;26.75;nan;100353.31;5039036;28;19936;-86
2023/09/15 13:21:44;;;;;;;;;;;;;;;26.73;nan;100350.03;5032524;28;19913;-86
2023/09/15 13:24:10;;;;;;;;;;;;;;;26.86;nan;100351.44;5021323;28;19964;-88
2023/09/15 13:26:35;;;;;;;;;;;;;;;27.10;nan;100349.09;5008768;28;20081;-86
2023/09/15 13:29:00;;;;;;;;;;;;;;;27.16;nan;100347.22;5017832;28;20007;-87
2023/09/15 13:31:26;;;;;;;;;;;;;;;27.27;nan;100338.06;5024277;28;19940;-84